Tovey, IL

1:12 AM CST on January 28, 2015 (GMT -0600)
Litchfield | Change Station
CLOSE
Current Station
Airport
Location: Litchfield,
Elevation: 689 ft
Nearby Weather Stations

Elev 689 ft 39.16 °N, 89.67 °W | Updated 17 minutes ago

Clear
Clear
26 °F
Feels Like 19 °F
N
6
Wind Variable Wind from ESE

Today
High -- | Low -- °F
--% Chance of Precip.
Yesterday
High -- | Low -- °F
Precip. -- in
7:09 AM 5:12 PM
First Quarter, 62% visible
Pressure 30.25 in
Visibility 7.0 miles
Clouds Clear
Windchill 19 °F
Dew Point 23 °F
Humidity 88%
Rainfall 0.00 in
Snow Depth Not available.
UV 0 out of 12
Pollen .10 out of 12
Air Quality Not available.
Flu Activity Not available.
METAR K3LF 280655Z AUTO 11005KT 7SM CLR M03/M05 A3025 RMK AO2 T10331050

More Conditions Fewer Conditions

Pressure 30.25 in
Visibility 7.0 miles
Clouds Clear
Windchill 19 °F
Dew Point 23 °F
Humidity 88%
Rainfall 0.00 in
Snow Depth Not available.
UV 0 out of 12
Pollen .10 out of 12
Air Quality Not available.
Flu Activity Not available.
METAR K3LF 280655Z AUTO 11005KT 7SM CLR M03/M05 A3025 RMK AO2 T10331050

More Conditions Fewer Conditions

10-Day Weather Forecast

Almanac

Astronomy

Jan. 28, 2015 Rise Set
Actual Time
Civil Twilight
Nautical Twilight
Astronomical Twilight
Moon
Length of Visible Light
Length of Day
Tomorrow will be .
, % of the Moon is Illuminated

Today's Extremes

State Highs State Lows

Community

WunderPhotos

Upload Photos

1,791,117 photos uploaded!

WunderBlogs® & News

Nearby

Air Quality

  Air Quality AQ Index Pollutant
Not available.

Snow Depth

Station Depth Elevation

Earthquake Activity

City Distance Mag. Time & Date
Minimum magnitude displayed is 2.5.

Coastal Water Temperatures

Place Temperature

Nearby Weather Stations